Time,TemperatureF,DewpointF,PressureIn,WindDirection,WindDirectionDegrees,WindSpeedMPH,WindSpeedGustMPH,Humidity,HourlyPrecipIn,Conditions,Clouds,dailyrainin,SoftwareType,DateUTC
2017-07-24 06:54:00,60.0,59.0,29.59,SW,225,0.0,0.0,97,0.00,,,0.00,Rainwise IP-100,2017-07-24 10:54:00,
2017-07-24 06:59:00,58.9,58.0,29.93,SSE,157,0.0,1.0,97,0.00,,,0.00,Rainwise IP-100,2017-07-24 10:59:00,
2017-07-24 07:04:00,58.8,58.0,29.93,NNE,22,0.0,2.0,97,0.00,,,0.00,Rainwise IP-100,2017-07-24 11:04:00,
2017-07-24 07:05:00,58.8,58.0,29.92,East,90,0.0,2.0,97,0.00,,,0.00,Rainwise IP-100,2017-07-24 11:05:00,
2017-07-24 07:10:00,58.6,58.0,29.92,SSW,202,0.0,1.0,97,0.06,,,0.01,Rainwise IP-100,2017-07-24 11:10:00,
2017-07-24 07:15:00,58.5,58.0,29.93,SSW,202,0.0,2.0,97,0.06,,,0.01,Rainwise IP-100,2017-07-24 11:15:00,
2017-07-24 07:20:00,58.3,57.0,29.93,SSW,202,0.0,1.0,97,0.06,,,0.02,Rainwise IP-100,2017-07-24 11:20:00,
2017-07-24 07:25:00,58.2,57.0,29.92,SSW,202,0.0,0.0,97,0.12,,,0.03,Rainwise IP-100,2017-07-24 11:25:00,
2017-07-24 07:30:00,58.1,57.0,29.92,WSW,247,0.0,1.0,97,0.18,,,0.05,Rainwise IP-100,2017-07-24 11:30:00,
2017-07-24 07:35:00,58.1,57.0,29.92,WSW,247,0.0,0.0,97,0.18,,,0.06,Rainwise IP-100,2017-07-24 11:35:00,
2017-07-24 07:40:00,58.0,57.0,29.92,WNW,292,0.0,1.0,97,0.18,,,0.08,Rainwise IP-100,2017-07-24 11:40:00,
2017-07-24 07:45:00,58.0,57.0,29.92,WNW,292,0.0,1.0,97,0.24,,,0.10,Rainwise IP-100,2017-07-24 11:45:00,
2017-07-24 07:50:00,58.0,57.0,29.92,WNW,292,0.0,2.0,98,0.18,,,0.11,Rainwise IP-100,2017-07-24 11:50:00,
2017-07-24 07:55:00,58.0,57.0,29.92,NNE,22,1.9,4.0,98,0.18,,,0.13,Rainwise IP-100,2017-07-24 11:55:00,
2017-07-24 08:00:00,58.0,57.0,29.92,WSW,247,2.3,4.0,98,0.24,,,0.15,Rainwise IP-100,2017-07-24 12:00:00,
2017-07-24 08:05:00,58.0,57.0,29.91,ENE,67,0.0,4.0,98,0.24,,,0.17,Rainwise IP-100,2017-07-24 12:05:00,
2017-07-24 08:10:00,58.0,57.0,29.92,NE,45,2.3,6.0,98,0.12,,,0.17,Rainwise IP-100,2017-07-24 12:10:00,
2017-07-24 08:15:00,57.9,57.0,29.92,ESE,112,1.9,5.0,98,0.06,,,0.18,Rainwise IP-100,2017-07-24 12:15:00,
2017-07-24 08:20:00,57.8,57.0,29.92,SSE,157,0.0,4.0,98,0.06,,,0.18,Rainwise IP-100,2017-07-24 12:20:00,
2017-07-24 08:25:00,57.8,57.0,29.92,ESE,112,1.2,3.0,98,0.00,,,0.18,Rainwise IP-100,2017-07-24 12:25:00,
2017-07-24 08:30:00,57.9,57.0,29.92,WSW,247,3.0,4.0,98,0.00,,,0.18,Rainwise IP-100,2017-07-24 12:30:00,
2017-07-24 08:35:00,57.8,57.0,29.93,NW,315,0.0,4.0,98,0.00,,,0.18,Rainwise IP-100,2017-07-24 12:35:00,
2017-07-24 08:40:00,57.7,57.0,29.93,SSE,157,0.0,6.0,98,0.00,,,0.18,Rainwise IP-100,2017-07-24 12:40:00,
2017-07-24 08:45:00,57.7,57.0,29.93,ESE,112,0.0,1.0,98,0.00,,,0.18,Rainwise IP-100,2017-07-24 12:45:00,
2017-07-24 08:50:00,57.8,57.0,29.93,ESE,112,0.0,5.0,99,0.00,,,0.18,Rainwise IP-100,2017-07-24 12:50:00,
2017-07-24 08:55:00,57.7,57.0,29.93,WNW,292,2.6,6.0,98,0.00,,,0.18,Rainwise IP-100,2017-07-24 12:55:00,
2017-07-24 09:00:00,57.5,57.0,29.93,NW,315,2.8,5.0,98,0.00,,,0.18,Rainwise IP-100,2017-07-24 13:00:00,
2017-07-24 09:05:00,57.5,57.0,29.92,ESE,112,1.2,3.0,98,0.06,,,0.19,Rainwise IP-100,2017-07-24 13:05:00,
2017-07-24 09:10:00,57.4,57.0,29.92,SSE,157,0.0,5.0,98,0.06,,,0.19,Rainwise IP-100,2017-07-24 13:10:00,
2017-07-24 09:15:00,57.3,56.0,29.92,West,270,0.0,4.0,98,0.00,,,0.19,Rainwise IP-100,2017-07-24 13:15:00,
2017-07-24 09:20:00,57.2,56.0,29.92,West,270,3.0,4.0,98,0.00,,,0.19,Rainwise IP-100,2017-07-24 13:20:00,
2017-07-24 09:25:00,57.1,56.0,29.92,North,360,0.0,4.0,98,0.00,,,0.19,Rainwise IP-100,2017-07-24 13:25:00,
2017-07-24 09:30:00,57.0,56.0,29.92,NNE,22,1.2,3.0,98,0.06,,,0.20,Rainwise IP-100,2017-07-24 13:30:00,
2017-07-24 09:35:00,56.9,56.0,29.92,SSE,157,0.0,6.0,98,0.06,,,0.20,Rainwise IP-100,2017-07-24 13:35:00,
2017-07-24 09:40:00,56.7,56.0,29.92,SSE,157,0.0,4.0,98,0.06,,,0.21,Rainwise IP-100,2017-07-24 13:40:00,
2017-07-24 09:45:00,56.6,56.0,29.92,NE,45,2.6,6.0,98,0.06,,,0.21,Rainwise IP-100,2017-07-24 13:45:00,
2017-07-24 09:50:00,56.3,55.0,29.92,ESE,112,4.7,4.7,98,0.00,,,0.21,Rainwise IP-100,2017-07-24 13:50:00,
2017-07-24 09:55:00,56.2,55.0,29.92,SSE,157,4.4,5.0,98,0.06,,,0.22,Rainwise IP-100,2017-07-24 13:55:00,
2017-07-24 10:00:00,56.0,55.0,29.93,NE,45,0.0,5.0,98,0.18,,,0.24,Rainwise IP-100,2017-07-24 14:00:00,
2017-07-24 10:05:00,55.9,55.0,29.93,WNW,292,0.0,4.0,98,0.30,,,0.27,Rainwise IP-100,2017-07-24 14:05:00,
2017-07-24 10:10:00,55.8,55.0,29.93,ESE,112,0.0,4.0,98,0.24,,,0.28,Rainwise IP-100,2017-07-24 14:10:00,
2017-07-24 10:15:00,55.8,55.0,29.93,North,360,0.0,2.0,98,0.12,,,0.29,Rainwise IP-100,2017-07-24 14:15:00,
2017-07-24 10:20:00,55.8,56.0,29.93,SE,135,0.0,3.0,99,0.18,,,0.31,Rainwise IP-100,2017-07-24 14:20:00,
2017-07-24 10:25:00,55.8,56.0,29.93,ENE,67,0.0,1.0,99,0.24,,,0.33,Rainwise IP-100,2017-07-24 14:25:00,
2017-07-24 10:30:00,55.8,56.0,29.93,SSE,157,1.6,3.0,99,0.30,,,0.36,Rainwise IP-100,2017-07-24 14:30:00,
2017-07-24 10:35:00,55.9,56.0,29.93,SSW,202,2.3,3.0,99,0.30,,,0.38,Rainwise IP-100,2017-07-24 14:35:00,
2017-07-24 10:40:00,56.0,56.0,29.93,ENE,67,1.2,4.0,99,0.18,,,0.39,Rainwise IP-100,2017-07-24 14:40:00,
2017-07-24 10:45:00,56.1,56.0,29.92,WNW,292,0.0,4.0,99,0.18,,,0.41,Rainwise IP-100,2017-07-24 14:45:00,
2017-07-24 10:50:00,56.2,56.0,29.92,SE,135,0.0,5.0,99,0.24,,,0.43,Rainwise IP-100,2017-07-24 14:50:00,
2017-07-24 10:55:00,56.4,56.0,29.92,ESE,112,0.0,4.0,99,0.18,,,0.45,Rainwise IP-100,2017-07-24 14:55:00,
2017-07-24 11:00:00,56.4,56.0,29.92,WSW,247,0.0,5.0,99,0.24,,,0.47,Rainwise IP-100,2017-07-24 15:00:00,
2017-07-24 11:05:00,56.5,56.0,29.93,SSE,157,2.3,3.0,100,0.36,,,0.51,Rainwise IP-100,2017-07-24 15:05:00,
2017-07-24 11:10:00,56.7,56.0,29.93,SE,135,4.0,4.0,100,0.42,,,0.55,Rainwise IP-100,2017-07-24 15:10:00,
2017-07-24 11:15:00,56.9,57.0,29.93,SSW,202,0.0,5.0,100,0.48,,,0.58,Rainwise IP-100,2017-07-24 15:15:00,
2017-07-24 11:18:00,56.9,57.0,29.93,WSW,247,4.4,5.0,100,0.42,,,0.61,Rainwise IP-100,2017-07-24 15:18:00,
2017-07-24 11:23:00,57.1,57.0,29.93,NNW,337,1.9,5.0,100,0.36,,,0.63,Rainwise IP-100,2017-07-24 15:23:00,
2017-07-24 11:28:00,57.1,57.0,29.93,WNW,292,7.5,7.5,100,0.24,,,0.64,Rainwise IP-100,2017-07-24 15:28:00,
2017-07-24 11:33:00,57.1,57.0,29.94,ENE,67,3.5,10.0,99,0.18,,,0.65,Rainwise IP-100,2017-07-24 15:33:00,
2017-07-24 11:38:00,57.0,57.0,29.93,NNE,22,1.9,8.0,99,0.12,,,0.66,Rainwise IP-100,2017-07-24 15:38:00,
2017-07-24 11:43:00,56.5,56.0,29.94,ESE,112,2.3,10.0,99,0.12,,,0.67,Rainwise IP-100,2017-07-24 15:43:00,
2017-07-24 11:48:00,56.1,56.0,29.93,East,90,3.5,8.0,99,0.24,,,0.70,Rainwise IP-100,2017-07-24 15:48:00,
2017-07-24 11:53:00,55.8,56.0,29.93,WSW,247,0.0,7.0,99,0.36,,,0.74,Rainwise IP-100,2017-07-24 15:53:00,
2017-07-24 11:58:00,55.5,56.0,29.93,WSW,247,0.0,7.0,99,0.42,,,0.78,Rainwise IP-100,2017-07-24 15:58:00,
2017-07-24 12:03:00,55.4,55.0,29.93,North,360,0.0,5.0,99,0.54,,,0.83,Rainwise IP-100,2017-07-24 16:03:00,
2017-07-24 12:08:00,55.4,55.0,29.92,NNW,337,0.0,5.0,99,0.72,,,0.90,Rainwise IP-100,2017-07-24 16:08:00,
2017-07-24 12:13:00,55.4,55.0,29.92,NNE,22,0.0,4.0,99,1.08,,,1.02,Rainwise IP-100,2017-07-24 16:13:00,
2017-07-24 12:18:00,55.3,55.0,29.92,SE,135,3.0,6.0,99,1.32,,,1.14,Rainwise IP-100,2017-07-24 16:18:00,
2017-07-24 12:23:00,55.2,55.0,29.92,ENE,67,0.0,7.0,99,1.50,,,1.27,Rainwise IP-100,2017-07-24 16:23:00,
2017-07-24 12:28:00,55.1,55.0,29.92,SSE,157,0.0,6.0,99,1.38,,,1.36,Rainwise IP-100,2017-07-24 16:28:00,
2017-07-24 12:33:00,55.1,55.0,29.92,SSE,157,1.2,8.0,99,1.20,,,1.47,Rainwise IP-100,2017-07-24 16:33:00,
2017-07-24 12:38:00,55.1,55.0,29.92,ESE,112,0.0,3.0,100,1.08,,,1.53,Rainwise IP-100,2017-07-24 16:38:00,
2017-07-24 12:44:00,55.2,55.0,29.92,WNW,292,0.0,7.0,100,0.60,,,1.55,Rainwise IP-100,2017-07-24 16:44:00,
2017-07-24 12:49:00,55.3,55.0,29.93,NE,45,0.0,2.0,100,0.24,,,1.56,Rainwise IP-100,2017-07-24 16:49:00,
2017-07-24 12:54:00,55.4,55.0,29.93,SSE,157,1.2,5.0,100,0.12,,,1.58,Rainwise IP-100,2017-07-24 16:54:00,
2017-07-24 12:59:00,55.6,56.0,29.93,SSW,202,0.0,4.0,100,0.30,,,1.62,Rainwise IP-100,2017-07-24 16:59:00,
2017-07-24 13:04:00,55.7,56.0,29.93,WSW,247,0.0,1.0,100,0.42,,,1.65,Rainwise IP-100,2017-07-24 17:04:00,
2017-07-24 13:09:00,55.9,56.0,29.92,ENE,67,0.0,2.0,100,0.36,,,1.68,Rainwise IP-100,2017-07-24 17:09:00,
2017-07-24 13:14:00,56.2,56.0,29.93,SSE,157,1.4,3.0,100,0.36,,,1.71,Rainwise IP-100,2017-07-24 17:14:00,
2017-07-24 13:19:00,56.4,56.0,29.92,WSW,247,1.4,3.0,100,0.30,,,1.73,Rainwise IP-100,2017-07-24 17:19:00,
2017-07-24 13:24:00,56.7,56.0,29.92,West,270,0.0,6.0,100,0.36,,,1.77,Rainwise IP-100,2017-07-24 17:24:00,
2017-07-24 13:29:00,57.1,57.0,29.92,SE,135,4.2,5.0,100,0.54,,,1.82,Rainwise IP-100,2017-07-24 17:29:00,
2017-07-24 13:34:00,57.3,57.0,29.92,WSW,247,1.6,4.0,100,0.42,,,1.84,Rainwise IP-100,2017-07-24 17:34:00,
2017-07-24 13:39:00,57.5,57.0,29.92,SSW,202,0.0,3.0,100,0.18,,,1.85,Rainwise IP-100,2017-07-24 17:39:00,
2017-07-24 13:44:00,57.7,57.0,29.92,ESE,112,0.0,7.0,100,0.18,,,1.87,Rainwise IP-100,2017-07-24 17:44:00,
2017-07-24 13:49:00,57.8,57.0,29.92,SSW,202,1.4,7.0,100,0.18,,,1.88,Rainwise IP-100,2017-07-24 17:49:00,
2017-07-24 13:54:00,57.9,58.0,29.92,WNW,292,0.0,7.0,100,0.12,,,1.89,Rainwise IP-100,2017-07-24 17:54:00,
2017-07-24 13:59:00,58.0,58.0,29.92,WSW,247,2.3,3.0,100,0.12,,,1.90,Rainwise IP-100,2017-07-24 17:59:00,
2017-07-24 14:04:00,57.9,58.0,29.92,ENE,67,2.3,4.0,100,0.06,,,1.90,Rainwise IP-100,2017-07-24 18:04:00,
2017-07-24 14:14:00,57.8,57.0,29.92,ENE,67,0.0,7.0,100,0.00,,,1.90,Rainwise IP-100,2017-07-24 18:14:00,
2017-07-24 14:19:00,57.7,57.0,29.92,South,180,0.0,7.0,99,0.00,,,1.90,Rainwise IP-100,2017-07-24 18:19:00,